Zaliv Vostok — A8RM6 — position and weather

sailwx.info

Track history (hours):
 
Tides and Currents Weather Stations Pressure Air Temp Water Temp Dewpoint Dewpoint Depression Visibility Wind Speed Wind Dir Waves Ship Positions

Zaliv Vostok

Last reported at 2017-Feb-19 23:23 UTC. Time now 2017-Feb-21 05:27 UTC.
Position N 36°01' W 005°03'.

Length 243 m; draft 14 m.

Type: Tanker. MMSI: 636014127.

Date/timePositionNaut miles runAvg speedWind from/ knotsBaromVisibWave heightAir tempDewpointWater temp
2017-Feb-19 23:23N 36°01' W 005°03'7 8.4
2017-Feb-19 22:33N 36°00' W 005°11'8 8.2
2017-Feb-19 21:33N 35°60' W 005°21'7 7.4
2017-Feb-19 20:33N 35°57' W 005°30'7 7.5
2017-Feb-19 19:33N 35°56' W 005°39'258 8.3
2017-Feb-18 12:33N 38°21' W 010°06'  
2017-Feb-15 12:32N 49°48' W 003°28'9 9.1
2017-Feb-15 11:33N 49°53' W 003°16'8 8.3
2017-Feb-15 10:32N 49°57' W 003°05'8 8.2
2017-Feb-15 09:34N 50°01' W 002°54'10012.1
2017-Feb-15 01:19N 50°27' W 000°23'810.4
2017-Feb-15 00:33N 50°30' W 000°11'9 9.3
2017-Feb-14 23:34N 50°32' E 000°03'9 9.1
2017-Feb-14 22:33N 50°33' E 000°17'1010.0
2017-Feb-14 21:30N 50°37' E 000°32'1111.7
2017-Feb-14 20:34N 50°42' E 000°47'1412.5
2017-Feb-14 19:28N 50°51' E 001°04'1112.2
2017-Feb-14 18:34N 50°58' E 001°17'1111.0
2017-Feb-14 17:34N 51°06' E 001°30'9 9.0
2017-Feb-14 16:34N 51°11' E 001°41'8 8.3
2017-Feb-14 15:34N 51°18' E 001°49'9 8.7
2017-Feb-14 14:33N 51°26' E 001°55'1010.2
2017-Feb-14 13:34N 51°33' E 002°07'437 9.7
2017-Feb-12 16:33N 57°39' E 009°00'5310.5
2017-Feb-12 11:29N 57°50' E 010°37'910.2
2017-Feb-12 10:33N 57°46' E 010°53'1212.5
2017-Feb-12 09:33N 57°37' E 011°09'1212.2
2017-Feb-12 08:33N 57°28' E 011°25'1211.9
2017-Feb-12 07:33N 57°17' E 011°32'  
2017-Feb-10 01:33N 57°16' E 011°30'1313.0
2017-Feb-10 00:33N 57°28' E 011°20'1313.1
2017-Feb-09 23:33N 57°37' E 011°01'  
Track history (hours):
 
Tides and Currents Weather Stations Pressure Air Temp Water Temp Dewpoint Dewpoint Depression Visibility Wind Speed Wind Dir Waves Ship Positions

Zaliv Vostok

Last reported at 2017-Feb-19 23:23 UTC. Time now 2017-Feb-21 05:27 UTC.
Position N 36°01' W 005°03'.

Length 243 m; draft 14 m.

Type: Tanker. MMSI: 636014127.

Date/timePositionNaut miles runAvg speedWind from/ knotsBaromVisibWave heightAir tempDewpointWater temp
2017-Feb-19 23:23N 36°01' W 005°03'7 8.4
2017-Feb-19 22:33N 36°00' W 005°11'8 8.2
2017-Feb-19 21:33N 35°60' W 005°21'7 7.4
2017-Feb-19 20:33N 35°57' W 005°30'7 7.5
2017-Feb-19 19:33N 35°56' W 005°39'258 8.3
2017-Feb-18 12:33N 38°21' W 010°06'  
2017-Feb-15 12:32N 49°48' W 003°28'9 9.1
2017-Feb-15 11:33N 49°53' W 003°16'8 8.3
2017-Feb-15 10:32N 49°57' W 003°05'8 8.2
2017-Feb-15 09:34N 50°01' W 002°54'10012.1
2017-Feb-15 01:19N 50°27' W 000°23'810.4
2017-Feb-15 00:33N 50°30' W 000°11'9 9.3
2017-Feb-14 23:34N 50°32' E 000°03'9 9.1
2017-Feb-14 22:33N 50°33' E 000°17'1010.0
2017-Feb-14 21:30N 50°37' E 000°32'1111.7
2017-Feb-14 20:34N 50°42' E 000°47'1412.5
2017-Feb-14 19:28N 50°51' E 001°04'1112.2
2017-Feb-14 18:34N 50°58' E 001°17'1111.0
2017-Feb-14 17:34N 51°06' E 001°30'9 9.0
2017-Feb-14 16:34N 51°11' E 001°41'8 8.3
2017-Feb-14 15:34N 51°18' E 001°49'9 8.7
2017-Feb-14 14:33N 51°26' E 001°55'1010.2
2017-Feb-14 13:34N 51°33' E 002°07'437 9.7
2017-Feb-12 16:33N 57°39' E 009°00'5310.5
2017-Feb-12 11:29N 57°50' E 010°37'910.2
2017-Feb-12 10:33N 57°46' E 010°53'1212.5
2017-Feb-12 09:33N 57°37' E 011°09'1212.2
2017-Feb-12 08:33N 57°28' E 011°25'1211.9
2017-Feb-12 07:33N 57°17' E 011°32'  
2017-Feb-10 01:33N 57°16' E 011°30'1313.0
2017-Feb-10 00:33N 57°28' E 011°20'1313.1
2017-Feb-09 23:33N 57°37' E 011°01'  

Dump ship's entire track history